<?xml version="1.0" encoding="UTF-8" standalone="no" ?>
<gpx xmlns="http://www.topografix.com/GPX/1/1" xmlns:xsi="http://www.w3.org/2001/XMLSchema-instance" xsi:schemaLocation="http://www.topografix.com/GPX/1/1 http://www.topografix.com/GPX/1/1/gpx.xsd" version="1.1" creator="VisuGPX - https://www.visugpx.com">
  <metadata>
    <name>Course à pied le matin</name>
  </metadata>
  <trk>
    <name><![CDATA[Course à pied le matin_1]]></name>
    <trkseg>
      <trkpt lat="48.20126" lon="5.94445">
        <ele>344</ele>
        <time>2024-02-20T09:44:24Z</time>
      </trkpt>
      <trkpt lat="48.20126" lon="5.94445">
        <ele>344</ele>
        <time>2024-02-20T09:44:30Z</time>
      </trkpt>
      <trkpt lat="48.20096" lon="5.94457">
        <ele>344.1</ele>
        <time>2024-02-20T09:44:41Z</time>
      </trkpt>
      <trkpt lat="48.20077" lon="5.94461">
        <ele>344.4</ele>
        <time>2024-02-20T09:44:48Z</time>
      </trkpt>
      <trkpt lat="48.20057" lon="5.9446">
        <ele>344.8</ele>
        <time>2024-02-20T09:44:57Z</time>
      </trkpt>
      <trkpt lat="48.20042" lon="5.94454">
        <ele>345.4</ele>
        <time>2024-02-20T09:45:06Z</time>
      </trkpt>
      <trkpt lat="48.20023" lon="5.9446">
        <ele>345.9</ele>
        <time>2024-02-20T09:45:11Z</time>
      </trkpt>
      <trkpt lat="48.20007" lon="5.9447">
        <ele>346.5</ele>
        <time>2024-02-20T09:45:18Z</time>
      </trkpt>
      <trkpt lat="48.19999" lon="5.94465">
        <ele>346.9</ele>
        <time>2024-02-20T09:45:22Z</time>
      </trkpt>
      <trkpt lat="48.19992" lon="5.94465">
        <ele>347.2</ele>
        <time>2024-02-20T09:45:24Z</time>
      </trkpt>
      <trkpt lat="48.19973" lon="5.94469">
        <ele>348.3</ele>
        <time>2024-02-20T09:45:32Z</time>
      </trkpt>
      <trkpt lat="48.19955" lon="5.94478">
        <ele>349.4</ele>
        <time>2024-02-20T09:45:39Z</time>
      </trkpt>
      <trkpt lat="48.19939" lon="5.94493">
        <ele>350.3</ele>
        <time>2024-02-20T09:45:48Z</time>
      </trkpt>
      <trkpt lat="48.1992" lon="5.94502">
        <ele>351.3</ele>
        <time>2024-02-20T09:45:55Z</time>
      </trkpt>
      <trkpt lat="48.19903" lon="5.94507">
        <ele>352.5</ele>
        <time>2024-02-20T09:46:04Z</time>
      </trkpt>
      <trkpt lat="48.19886" lon="5.94489">
        <ele>352.8</ele>
        <time>2024-02-20T09:46:12Z</time>
      </trkpt>
      <trkpt lat="48.19868" lon="5.94477">
        <ele>354.3</ele>
        <time>2024-02-20T09:46:18Z</time>
      </trkpt>
      <trkpt lat="48.19848" lon="5.94459">
        <ele>355.6</ele>
        <time>2024-02-20T09:46:25Z</time>
      </trkpt>
      <trkpt lat="48.19831" lon="5.94442">
        <ele>356.6</ele>
        <time>2024-02-20T09:46:33Z</time>
      </trkpt>
      <trkpt lat="48.19813" lon="5.94432">
        <ele>357.5</ele>
        <time>2024-02-20T09:46:40Z</time>
      </trkpt>
      <trkpt lat="48.19794" lon="5.94426">
        <ele>358.4</ele>
        <time>2024-02-20T09:46:47Z</time>
      </trkpt>
      <trkpt lat="48.19776" lon="5.94429">
        <ele>359.2</ele>
        <time>2024-02-20T09:46:54Z</time>
      </trkpt>
      <trkpt lat="48.19754" lon="5.94426">
        <ele>359.9</ele>
        <time>2024-02-20T09:47:00Z</time>
      </trkpt>
      <trkpt lat="48.19735" lon="5.94426">
        <ele>360.3</ele>
        <time>2024-02-20T09:47:06Z</time>
      </trkpt>
      <trkpt lat="48.19715" lon="5.94425">
        <ele>360.3</ele>
        <time>2024-02-20T09:47:12Z</time>
      </trkpt>
      <trkpt lat="48.19696" lon="5.94421">
        <ele>360.2</ele>
        <time>2024-02-20T09:47:18Z</time>
      </trkpt>
      <trkpt lat="48.19677" lon="5.94415">
        <ele>359.4</ele>
        <time>2024-02-20T09:47:24Z</time>
      </trkpt>
      <trkpt lat="48.19659" lon="5.94407">
        <ele>358.8</ele>
        <time>2024-02-20T09:47:30Z</time>
      </trkpt>
      <trkpt lat="48.1964" lon="5.94396">
        <ele>358.3</ele>
        <time>2024-02-20T09:47:36Z</time>
      </trkpt>
      <trkpt lat="48.19627" lon="5.94373">
        <ele>358.4</ele>
        <time>2024-02-20T09:47:43Z</time>
      </trkpt>
      <trkpt lat="48.19621" lon="5.94345">
        <ele>358.6</ele>
        <time>2024-02-20T09:47:51Z</time>
      </trkpt>
      <trkpt lat="48.19617" lon="5.94319">
        <ele>358.6</ele>
        <time>2024-02-20T09:47:59Z</time>
      </trkpt>
      <trkpt lat="48.19615" lon="5.94286">
        <ele>358.8</ele>
        <time>2024-02-20T09:48:03Z</time>
      </trkpt>
      <trkpt lat="48.19615" lon="5.94256">
        <ele>359.1</ele>
        <time>2024-02-20T09:48:08Z</time>
      </trkpt>
      <trkpt lat="48.19614" lon="5.94228">
        <ele>359.5</ele>
        <time>2024-02-20T09:48:15Z</time>
      </trkpt>
      <trkpt lat="48.19611" lon="5.94199">
        <ele>359.9</ele>
        <time>2024-02-20T09:48:22Z</time>
      </trkpt>
      <trkpt lat="48.19607" lon="5.9417">
        <ele>360.4</ele>
        <time>2024-02-20T09:48:29Z</time>
      </trkpt>
      <trkpt lat="48.19603" lon="5.94143">
        <ele>361.2</ele>
        <time>2024-02-20T09:48:34Z</time>
      </trkpt>
      <trkpt lat="48.19594" lon="5.94117">
        <ele>361.6</ele>
        <time>2024-02-20T09:48:40Z</time>
      </trkpt>
      <trkpt lat="48.19582" lon="5.94097">
        <ele>361.9</ele>
        <time>2024-02-20T09:48:46Z</time>
      </trkpt>
      <trkpt lat="48.19568" lon="5.94073">
        <ele>362.3</ele>
        <time>2024-02-20T09:48:53Z</time>
      </trkpt>
      <trkpt lat="48.19556" lon="5.94051">
        <ele>362.5</ele>
        <time>2024-02-20T09:48:59Z</time>
      </trkpt>
      <trkpt lat="48.19544" lon="5.94025">
        <ele>362.9</ele>
        <time>2024-02-20T09:49:06Z</time>
      </trkpt>
      <trkpt lat="48.1953" lon="5.94003">
        <ele>363.3</ele>
        <time>2024-02-20T09:49:13Z</time>
      </trkpt>
      <trkpt lat="48.19516" lon="5.93982">
        <ele>363.7</ele>
        <time>2024-02-20T09:49:20Z</time>
      </trkpt>
      <trkpt lat="48.19502" lon="5.93961">
        <ele>364.1</ele>
        <time>2024-02-20T09:49:27Z</time>
      </trkpt>
      <trkpt lat="48.1949" lon="5.93938">
        <ele>364.7</ele>
        <time>2024-02-20T09:49:35Z</time>
      </trkpt>
      <trkpt lat="48.19477" lon="5.93914">
        <ele>365.4</ele>
        <time>2024-02-20T09:49:43Z</time>
      </trkpt>
      <trkpt lat="48.19467" lon="5.9389">
        <ele>366</ele>
        <time>2024-02-20T09:49:50Z</time>
      </trkpt>
      <trkpt lat="48.19457" lon="5.93865">
        <ele>366.7</ele>
        <time>2024-02-20T09:49:57Z</time>
      </trkpt>
      <trkpt lat="48.19447" lon="5.93842">
        <ele>367.4</ele>
        <time>2024-02-20T09:50:04Z</time>
      </trkpt>
      <trkpt lat="48.19435" lon="5.93818">
        <ele>368.4</ele>
        <time>2024-02-20T09:50:11Z</time>
      </trkpt>
      <trkpt lat="48.19421" lon="5.93797">
        <ele>369.5</ele>
        <time>2024-02-20T09:50:18Z</time>
      </trkpt>
      <trkpt lat="48.194" lon="5.93783">
        <ele>370.8</ele>
        <time>2024-02-20T09:50:24Z</time>
      </trkpt>
      <trkpt lat="48.19382" lon="5.9377">
        <ele>370.7</ele>
        <time>2024-02-20T09:50:31Z</time>
      </trkpt>
      <trkpt lat="48.1937" lon="5.93751">
        <ele>370.7</ele>
        <time>2024-02-20T09:50:38Z</time>
      </trkpt>
      <trkpt lat="48.19362" lon="5.9374">
        <ele>370.7</ele>
        <time>2024-02-20T09:50:44Z</time>
      </trkpt>
      <trkpt lat="48.19373" lon="5.93758">
        <ele>370.7</ele>
        <time>2024-02-20T11:03:50Z</time>
      </trkpt>
      <trkpt lat="48.19386" lon="5.93776">
        <ele>370.9</ele>
        <time>2024-02-20T11:04:00Z</time>
      </trkpt>
      <trkpt lat="48.19405" lon="5.9378">
        <ele>370.5</ele>
        <time>2024-02-20T11:04:09Z</time>
      </trkpt>
      <trkpt lat="48.19418" lon="5.93802">
        <ele>369.4</ele>
        <time>2024-02-20T11:04:17Z</time>
      </trkpt>
      <trkpt lat="48.19431" lon="5.93823">
        <ele>368.4</ele>
        <time>2024-02-20T11:04:24Z</time>
      </trkpt>
      <trkpt lat="48.19443" lon="5.93844">
        <ele>367.5</ele>
        <time>2024-02-20T11:04:31Z</time>
      </trkpt>
      <trkpt lat="48.19455" lon="5.93865">
        <ele>366.7</ele>
        <time>2024-02-20T11:04:38Z</time>
      </trkpt>
      <trkpt lat="48.19466" lon="5.93887">
        <ele>366.1</ele>
        <time>2024-02-20T11:04:44Z</time>
      </trkpt>
      <trkpt lat="48.19479" lon="5.93907">
        <ele>365.5</ele>
        <time>2024-02-20T11:04:50Z</time>
      </trkpt>
      <trkpt lat="48.19491" lon="5.93932">
        <ele>364.8</ele>
        <time>2024-02-20T11:04:57Z</time>
      </trkpt>
      <trkpt lat="48.19504" lon="5.93953">
        <ele>364.2</ele>
        <time>2024-02-20T11:05:03Z</time>
      </trkpt>
      <trkpt lat="48.19518" lon="5.93974">
        <ele>363.8</ele>
        <time>2024-02-20T11:05:09Z</time>
      </trkpt>
      <trkpt lat="48.1953" lon="5.93996">
        <ele>363.3</ele>
        <time>2024-02-20T11:05:16Z</time>
      </trkpt>
      <trkpt lat="48.19542" lon="5.94019">
        <ele>363</ele>
        <time>2024-02-20T11:05:23Z</time>
      </trkpt>
      <trkpt lat="48.19559" lon="5.94035">
        <ele>362.6</ele>
        <time>2024-02-20T11:05:28Z</time>
      </trkpt>
      <trkpt lat="48.19572" lon="5.94057">
        <ele>362.4</ele>
        <time>2024-02-20T11:05:34Z</time>
      </trkpt>
      <trkpt lat="48.19585" lon="5.94076">
        <ele>362</ele>
        <time>2024-02-20T11:05:40Z</time>
      </trkpt>
      <trkpt lat="48.19596" lon="5.94098">
        <ele>361.8</ele>
        <time>2024-02-20T11:05:46Z</time>
      </trkpt>
      <trkpt lat="48.19606" lon="5.94122">
        <ele>361.3</ele>
        <time>2024-02-20T11:05:52Z</time>
      </trkpt>
      <trkpt lat="48.1961" lon="5.9415">
        <ele>360.7</ele>
        <time>2024-02-20T11:05:58Z</time>
      </trkpt>
      <trkpt lat="48.19614" lon="5.9418">
        <ele>360.2</ele>
        <time>2024-02-20T11:06:04Z</time>
      </trkpt>
      <trkpt lat="48.19619" lon="5.94208">
        <ele>359.7</ele>
        <time>2024-02-20T11:06:10Z</time>
      </trkpt>
      <trkpt lat="48.19623" lon="5.94236">
        <ele>359.3</ele>
        <time>2024-02-20T11:06:16Z</time>
      </trkpt>
      <trkpt lat="48.19629" lon="5.94266">
        <ele>358.9</ele>
        <time>2024-02-20T11:06:22Z</time>
      </trkpt>
      <trkpt lat="48.19636" lon="5.94295">
        <ele>358.7</ele>
        <time>2024-02-20T11:06:28Z</time>
      </trkpt>
      <trkpt lat="48.19642" lon="5.94321">
        <ele>358.6</ele>
        <time>2024-02-20T11:06:34Z</time>
      </trkpt>
      <trkpt lat="48.19648" lon="5.94351">
        <ele>358.5</ele>
        <time>2024-02-20T11:06:41Z</time>
      </trkpt>
      <trkpt lat="48.19656" lon="5.94376">
        <ele>358.3</ele>
        <time>2024-02-20T11:06:48Z</time>
      </trkpt>
      <trkpt lat="48.19673" lon="5.94386">
        <ele>359.1</ele>
        <time>2024-02-20T11:06:55Z</time>
      </trkpt>
      <trkpt lat="48.19693" lon="5.94395">
        <ele>359.9</ele>
        <time>2024-02-20T11:07:02Z</time>
      </trkpt>
      <trkpt lat="48.1971" lon="5.94403">
        <ele>360.3</ele>
        <time>2024-02-20T11:07:09Z</time>
      </trkpt>
      <trkpt lat="48.19728" lon="5.94406">
        <ele>360.4</ele>
        <time>2024-02-20T11:07:16Z</time>
      </trkpt>
      <trkpt lat="48.19748" lon="5.94404">
        <ele>360.1</ele>
        <time>2024-02-20T11:07:22Z</time>
      </trkpt>
      <trkpt lat="48.19767" lon="5.94401">
        <ele>359.4</ele>
        <time>2024-02-20T11:07:28Z</time>
      </trkpt>
      <trkpt lat="48.19788" lon="5.94398">
        <ele>358.7</ele>
        <time>2024-02-20T11:07:36Z</time>
      </trkpt>
      <trkpt lat="48.19806" lon="5.94404">
        <ele>358</ele>
        <time>2024-02-20T11:07:43Z</time>
      </trkpt>
      <trkpt lat="48.19825" lon="5.94414">
        <ele>357.3</ele>
        <time>2024-02-20T11:07:49Z</time>
      </trkpt>
      <trkpt lat="48.19842" lon="5.94427">
        <ele>356.5</ele>
        <time>2024-02-20T11:07:54Z</time>
      </trkpt>
      <trkpt lat="48.19858" lon="5.94439">
        <ele>355.6</ele>
        <time>2024-02-20T11:07:59Z</time>
      </trkpt>
      <trkpt lat="48.19874" lon="5.94458">
        <ele>354.6</ele>
        <time>2024-02-20T11:08:05Z</time>
      </trkpt>
      <trkpt lat="48.1989" lon="5.94475">
        <ele>353.2</ele>
        <time>2024-02-20T11:08:11Z</time>
      </trkpt>
      <trkpt lat="48.19896" lon="5.94479">
        <ele>352.5</ele>
        <time>2024-02-20T11:08:12Z</time>
      </trkpt>
      <trkpt lat="48.19916" lon="5.94472">
        <ele>351.5</ele>
        <time>2024-02-20T11:08:19Z</time>
      </trkpt>
      <trkpt lat="48.19934" lon="5.94462">
        <ele>350.6</ele>
        <time>2024-02-20T11:08:24Z</time>
      </trkpt>
      <trkpt lat="48.19952" lon="5.94449">
        <ele>349.7</ele>
        <time>2024-02-20T11:08:30Z</time>
      </trkpt>
      <trkpt lat="48.19969" lon="5.94437">
        <ele>349</ele>
        <time>2024-02-20T11:08:35Z</time>
      </trkpt>
      <trkpt lat="48.19986" lon="5.94422">
        <ele>348.1</ele>
        <time>2024-02-20T11:08:41Z</time>
      </trkpt>
      <trkpt lat="48.19993" lon="5.9442">
        <ele>347.9</ele>
        <time>2024-02-20T11:08:42Z</time>
      </trkpt>
      <trkpt lat="48.20014" lon="5.94416">
        <ele>347.1</ele>
        <time>2024-02-20T11:08:49Z</time>
      </trkpt>
      <trkpt lat="48.20031" lon="5.94414">
        <ele>346.5</ele>
        <time>2024-02-20T11:08:54Z</time>
      </trkpt>
      <trkpt lat="48.20051" lon="5.94417">
        <ele>346</ele>
        <time>2024-02-20T11:09:00Z</time>
      </trkpt>
      <trkpt lat="48.2007" lon="5.94418">
        <ele>345.6</ele>
        <time>2024-02-20T11:09:06Z</time>
      </trkpt>
      <trkpt lat="48.20091" lon="5.94416">
        <ele>345</ele>
        <time>2024-02-20T11:09:12Z</time>
      </trkpt>
      <trkpt lat="48.2011" lon="5.94411">
        <ele>344.5</ele>
        <time>2024-02-20T11:09:18Z</time>
      </trkpt>
      <trkpt lat="48.2013" lon="5.94414">
        <ele>343.8</ele>
        <time>2024-02-20T11:09:24Z</time>
      </trkpt>
      <trkpt lat="48.20149" lon="5.94425">
        <ele>343.1</ele>
        <time>2024-02-20T11:09:30Z</time>
      </trkpt>
      <trkpt lat="48.2016" lon="5.94434">
        <ele>342.7</ele>
        <time>2024-02-20T11:09:34Z</time>
      </trkpt>
    </trkseg>
  </trk>
</gpx>